sensor_id;sensor_type;location;lat;lon;timestamp;P1;durP1;ratioP1;P2;durP2;ratioP2
7807;SDS011;3949;49.254;8.894;2023-08-21T00:00:53;6.27;;;5.67;;
7807;SDS011;3949;49.254;8.894;2023-08-21T00:03:19;5.93;;;5.33;;
7807;SDS011;3949;49.254;8.894;2023-08-21T00:05:45;5.67;;;5.23;;
7807;SDS011;3949;49.254;8.894;2023-08-21T00:08:11;5.80;;;5.30;;
7807;SDS011;3949;49.254;8.894;2023-08-21T00:10:37;6.20;;;5.60;;
7807;SDS011;3949;49.254;8.894;2023-08-21T00:13:04;6.60;;;6.00;;
7807;SDS011;3949;49.254;8.894;2023-08-21T00:15:30;6.43;;;5.83;;
7807;SDS011;3949;49.254;8.894;2023-08-21T00:17:56;7.00;;;6.30;;
7807;SDS011;3949;49.254;8.894;2023-08-21T00:20:22;6.20;;;5.70;;
7807;SDS011;3949;49.254;8.894;2023-08-21T00:22:48;7.60;;;6.13;;
7807;SDS011;3949;49.254;8.894;2023-08-21T00:25:14;6.03;;;5.53;;
7807;SDS011;3949;49.254;8.894;2023-08-21T00:27:40;6.17;;;5.67;;
7807;SDS011;3949;49.254;8.894;2023-08-21T00:30:06;6.20;;;5.60;;
7807;SDS011;3949;49.254;8.894;2023-08-21T00:32:33;6.53;;;5.93;;
7807;SDS011;3949;49.254;8.894;2023-08-21T00:34:59;6.87;;;6.27;;
7807;SDS011;3949;49.254;8.894;2023-08-21T00:37:25;6.67;;;6.07;;
7807;SDS011;3949;49.254;8.894;2023-08-21T00:39:50;6.53;;;6.00;;
7807;SDS011;3949;49.254;8.894;2023-08-21T00:42:16;6.40;;;5.80;;
7807;SDS011;3949;49.254;8.894;2023-08-21T00:44:42;6.67;;;6.07;;
7807;SDS011;3949;49.254;8.894;2023-08-21T00:47:08;6.30;;;5.80;;
7807;SDS011;3949;49.254;8.894;2023-08-21T00:49:35;7.07;;;6.47;;
7807;SDS011;3949;49.254;8.894;2023-08-21T00:52:01;6.60;;;6.00;;
7807;SDS011;3949;49.254;8.894;2023-08-21T00:54:27;6.43;;;5.83;;
7807;SDS011;3949;49.254;8.894;2023-08-21T00:56:54;10.13;;;9.33;;
7807;SDS011;3949;49.254;8.894;2023-08-21T00:59:20;9.27;;;8.47;;
7807;SDS011;3949;49.254;8.894;2023-08-21T01:01:46;7.93;;;7.23;;
7807;SDS011;3949;49.254;8.894;2023-08-21T01:04:12;7.53;;;6.87;;
7807;SDS011;3949;49.254;8.894;2023-08-21T01:06:38;7.10;;;6.60;;
7807;SDS011;3949;49.254;8.894;2023-08-21T01:09:08;6.70;;;6.10;;
7807;SDS011;3949;49.254;8.894;2023-08-21T01:14:08;6.33;;;5.83;;
7807;SDS011;3949;49.254;8.894;2023-08-21T01:16:36;7.10;;;6.50;;
7807;SDS011;3949;49.254;8.894;2023-08-21T01:19:03;7.60;;;7.00;;
7807;SDS011;3949;49.254;8.894;2023-08-21T01:21:29;6.80;;;6.20;;
7807;SDS011;3949;49.254;8.894;2023-08-21T01:23:55;7.50;;;6.73;;
7807;SDS011;3949;49.254;8.894;2023-08-21T01:26:21;7.20;;;6.60;;
7807;SDS011;3949;49.254;8.894;2023-08-21T01:28:47;7.30;;;6.70;;
7807;SDS011;3949;49.254;8.894;2023-08-21T01:33:45;7.73;;;7.03;;
7807;SDS011;3949;49.254;8.894;2023-08-21T01:36:12;7.30;;;6.70;;
7807;SDS011;3949;49.254;8.894;2023-08-21T01:38:38;7.87;;;7.07;;
7807;SDS011;3949;49.254;8.894;2023-08-21T01:41:04;7.60;;;7.00;;
7807;SDS011;3949;49.254;8.894;2023-08-21T01:43:30;7.17;;;6.50;;
7807;SDS011;3949;49.254;8.894;2023-08-21T01:45:56;7.90;;;7.20;;
7807;SDS011;3949;49.254;8.894;2023-08-21T01:48:22;7.57;;;6.87;;
7807;SDS011;3949;49.254;8.894;2023-08-21T01:50:48;7.93;;;7.20;;
7807;SDS011;3949;49.254;8.894;2023-08-21T01:53:14;8.10;;;7.30;;
7807;SDS011;3949;49.254;8.894;2023-08-21T01:55:40;6.67;;;6.07;;
7807;SDS011;3949;49.254;8.894;2023-08-21T01:58:06;7.40;;;6.70;;
7807;SDS011;3949;49.254;8.894;2023-08-21T02:00:32;7.50;;;6.80;;
7807;SDS011;3949;49.254;8.894;2023-08-21T02:02:58;9.10;;;7.37;;
7807;SDS011;3949;49.254;8.894;2023-08-21T02:05:24;8.23;;;7.13;;
7807;SDS011;3949;49.254;8.894;2023-08-21T02:07:50;7.40;;;6.80;;
7807;SDS011;3949;49.254;8.894;2023-08-21T02:10:16;7.90;;;7.10;;
7807;SDS011;3949;49.254;8.894;2023-08-21T02:12:42;7.57;;;6.87;;
7807;SDS011;3949;49.254;8.894;2023-08-21T02:15:08;7.30;;;6.67;;
7807;SDS011;3949;49.254;8.894;2023-08-21T02:17:35;6.50;;;6.00;;
7807;SDS011;3949;49.254;8.894;2023-08-21T02:20:01;7.30;;;6.70;;
7807;SDS011;3949;49.254;8.894;2023-08-21T02:22:27;8.20;;;6.47;;
7807;SDS011;3949;49.254;8.894;2023-08-21T02:24:53;6.57;;;6.07;;
7807;SDS011;3949;49.254;8.894;2023-08-21T02:27:19;7.20;;;6.70;;
7807;SDS011;3949;49.254;8.894;2023-08-21T02:29:45;6.73;;;6.13;;
7807;SDS011;3949;49.254;8.894;2023-08-21T02:32:11;6.80;;;6.17;;
7807;SDS011;3949;49.254;8.894;2023-08-21T02:34:37;6.77;;;6.17;;
7807;SDS011;3949;49.254;8.894;2023-08-21T02:37:04;6.50;;;6.00;;
7807;SDS011;3949;49.254;8.894;2023-08-21T02:39:30;7.33;;;6.63;;
7807;SDS011;3949;49.254;8.894;2023-08-21T02:41:56;6.60;;;6.00;;
7807;SDS011;3949;49.254;8.894;2023-08-21T02:44:22;7.30;;;6.57;;
7807;SDS011;3949;49.254;8.894;2023-08-21T02:46:48;7.87;;;7.13;;
7807;SDS011;3949;49.254;8.894;2023-08-21T02:49:14;6.70;;;6.10;;
7807;SDS011;3949;49.254;8.894;2023-08-21T02:51:40;6.93;;;6.37;;
7807;SDS011;3949;49.254;8.894;2023-08-21T02:54:06;6.40;;;5.87;;
7807;SDS011;3949;49.254;8.894;2023-08-21T02:56:32;8.27;;;7.40;;
7807;SDS011;3949;49.254;8.894;2023-08-21T02:58:58;8.37;;;7.67;;
7807;SDS011;3949;49.254;8.894;2023-08-21T03:01:24;8.27;;;7.50;;
7807;SDS011;3949;49.254;8.894;2023-08-21T03:03:50;8.70;;;7.90;;
7807;SDS011;3949;49.254;8.894;2023-08-21T03:06:16;8.23;;;7.43;;
7807;SDS011;3949;49.254;8.894;2023-08-21T03:08:41;7.00;;;6.43;;
7807;SDS011;3949;49.254;8.894;2023-08-21T03:11:08;7.50;;;6.87;;
7807;SDS011;3949;49.254;8.894;2023-08-21T03:13:34;7.50;;;6.73;;
7807;SDS011;3949;49.254;8.894;2023-08-21T03:16:00;7.77;;;7.17;;
7807;SDS011;3949;49.254;8.894;2023-08-21T03:18:30;7.27;;;6.60;;
7807;SDS011;3949;49.254;8.894;2023-08-21T03:20:56;6.97;;;6.37;;
7807;SDS011;3949;49.254;8.894;2023-08-21T03:23:22;6.50;;;5.90;;
7807;SDS011;3949;49.254;8.894;2023-08-21T03:25:51;7.47;;;6.77;;
7807;SDS011;3949;49.254;8.894;2023-08-21T03:28:17;6.83;;;6.23;;
7807;SDS011;3949;49.254;8.894;2023-08-21T03:30:43;7.47;;;6.80;;
7807;SDS011;3949;49.254;8.894;2023-08-21T03:33:09;7.17;;;6.47;;
7807;SDS011;3949;49.254;8.894;2023-08-21T03:35:35;7.70;;;6.90;;
7807;SDS011;3949;49.254;8.894;2023-08-21T03:38:02;8.47;;;7.77;;
7807;SDS011;3949;49.254;8.894;2023-08-21T03:40:28;7.80;;;7.20;;
7807;SDS011;3949;49.254;8.894;2023-08-21T03:42:54;7.77;;;7.07;;
7807;SDS011;3949;49.254;8.894;2023-08-21T03:45:20;11.87;;;10.43;;
7807;SDS011;3949;49.254;8.894;2023-08-21T03:47:46;11.27;;;10.27;;
7807;SDS011;3949;49.254;8.894;2023-08-21T03:50:12;10.63;;;9.63;;
7807;SDS011;3949;49.254;8.894;2023-08-21T03:52:38;9.60;;;8.80;;
7807;SDS011;3949;49.254;8.894;2023-08-21T03:55:04;10.17;;;9.17;;
7807;SDS011;3949;49.254;8.894;2023-08-21T03:57:30;9.17;;;8.20;;
7807;SDS011;3949;49.254;8.894;2023-08-21T03:59:56;9.07;;;8.27;;
7807;SDS011;3949;49.254;8.894;2023-08-21T04:02:22;8.10;;;7.30;;
7807;SDS011;3949;49.254;8.894;2023-08-21T04:04:48;8.37;;;7.63;;
7807;SDS011;3949;49.254;8.894;2023-08-21T04:07:14;8.33;;;7.63;;
7807;SDS011;3949;49.254;8.894;2023-08-21T04:09:40;7.70;;;7.10;;
7807;SDS011;3949;49.254;8.894;2023-08-21T04:12:06;7.63;;;6.93;;
7807;SDS011;3949;49.254;8.894;2023-08-21T04:14:32;7.37;;;6.77;;
7807;SDS011;3949;49.254;8.894;2023-08-21T04:16:58;8.33;;;7.63;;
7807;SDS011;3949;49.254;8.894;2023-08-21T04:19:24;9.27;;;7.73;;
7807;SDS011;3949;49.254;8.894;2023-08-21T04:21:54;9.60;;;8.70;;
7807;SDS011;3949;49.254;8.894;2023-08-21T04:24:20;9.47;;;8.60;;
7807;SDS011;3949;49.254;8.894;2023-08-21T04:26:46;8.50;;;7.70;;
7807;SDS011;3949;49.254;8.894;2023-08-21T04:29:12;8.20;;;7.37;;
7807;SDS011;3949;49.254;8.894;2023-08-21T04:31:38;7.27;;;6.67;;
7807;SDS011;3949;49.254;8.894;2023-08-21T04:34:04;8.20;;;7.43;;
7807;SDS011;3949;49.254;8.894;2023-08-21T04:36:30;7.90;;;7.23;;
7807;SDS011;3949;49.254;8.894;2023-08-21T04:38:56;7.87;;;6.93;;
7807;SDS011;3949;49.254;8.894;2023-08-21T04:41:22;8.73;;;8.03;;
7807;SDS011;3949;49.254;8.894;2023-08-21T04:43:48;7.87;;;7.17;;
7807;SDS011;3949;49.254;8.894;2023-08-21T04:46:14;8.17;;;7.37;;
7807;SDS011;3949;49.254;8.894;2023-08-21T04:48:40;8.73;;;7.43;;
7807;SDS011;3949;49.254;8.894;2023-08-21T04:51:06;8.13;;;7.40;;
7807;SDS011;3949;49.254;8.894;2023-08-21T04:53:32;8.27;;;7.57;;
7807;SDS011;3949;49.254;8.894;2023-08-21T04:55:58;7.70;;;7.00;;
7807;SDS011;3949;49.254;8.894;2023-08-21T04:58:25;7.87;;;7.07;;
7807;SDS011;3949;49.254;8.894;2023-08-21T05:00:51;8.13;;;7.43;;
7807;SDS011;3949;49.254;8.894;2023-08-21T05:03:17;8.63;;;7.53;;
7807;SDS011;3949;49.254;8.894;2023-08-21T05:05:51;8.70;;;7.90;;
7807;SDS011;3949;49.254;8.894;2023-08-21T05:08:17;9.53;;;8.43;;
7807;SDS011;3949;49.254;8.894;2023-08-21T05:10:43;9.73;;;8.60;;
7807;SDS011;3949;49.254;8.894;2023-08-21T05:13:09;8.23;;;7.53;;
7807;SDS011;3949;49.254;8.894;2023-08-21T05:15:35;9.00;;;8.30;;
7807;SDS011;3949;49.254;8.894;2023-08-21T05:18:01;8.20;;;7.40;;
7807;SDS011;3949;49.254;8.894;2023-08-21T05:20:27;9.40;;;8.43;;
7807;SDS011;3949;49.254;8.894;2023-08-21T05:22:53;9.27;;;8.37;;
7807;SDS011;3949;49.254;8.894;2023-08-21T05:25:19;8.20;;;7.50;;
7807;SDS011;3949;49.254;8.894;2023-08-21T05:27:45;9.47;;;8.50;;
7807;SDS011;3949;49.254;8.894;2023-08-21T05:30:11;9.17;;;8.37;;
7807;SDS011;3949;49.254;8.894;2023-08-21T05:32:38;7.83;;;7.13;;
7807;SDS011;3949;49.254;8.894;2023-08-21T05:35:04;8.07;;;7.40;;
7807;SDS011;3949;49.254;8.894;2023-08-21T05:37:30;8.00;;;7.30;;
7807;SDS011;3949;49.254;8.894;2023-08-21T05:39:56;8.27;;;7.53;;
7807;SDS011;3949;49.254;8.894;2023-08-21T05:42:22;8.30;;;7.57;;
7807;SDS011;3949;49.254;8.894;2023-08-21T05:44:48;8.40;;;7.57;;
7807;SDS011;3949;49.254;8.894;2023-08-21T05:47:14;7.60;;;6.83;;
7807;SDS011;3949;49.254;8.894;2023-08-21T05:49:40;8.80;;;7.30;;
7807;SDS011;3949;49.254;8.894;2023-08-21T05:52:06;7.27;;;6.67;;
7807;SDS011;3949;49.254;8.894;2023-08-21T05:54:32;7.60;;;6.90;;
7807;SDS011;3949;49.254;8.894;2023-08-21T05:56:58;8.27;;;7.47;;
7807;SDS011;3949;49.254;8.894;2023-08-21T05:59:29;8.37;;;7.67;;
7807;SDS011;3949;49.254;8.894;2023-08-21T06:01:55;7.40;;;6.80;;
7807;SDS011;3949;49.254;8.894;2023-08-21T06:04:21;7.90;;;7.20;;
7807;SDS011;3949;49.254;8.894;2023-08-21T06:06:47;7.33;;;6.73;;
7807;SDS011;3949;49.254;8.894;2023-08-21T06:09:13;8.60;;;7.70;;
7807;SDS011;3949;49.254;8.894;2023-08-21T06:11:41;7.23;;;6.63;;
7807;SDS011;3949;49.254;8.894;2023-08-21T06:14:07;7.93;;;7.13;;
7807;SDS011;3949;49.254;8.894;2023-08-21T06:16:33;7.33;;;6.73;;
7807;SDS011;3949;49.254;8.894;2023-08-21T06:18:59;6.60;;;6.10;;
7807;SDS011;3949;49.254;8.894;2023-08-21T06:21:25;7.97;;;7.30;;
7807;SDS011;3949;49.254;8.894;2023-08-21T06:23:51;8.37;;;7.43;;
7807;SDS011;3949;49.254;8.894;2023-08-21T06:26:16;6.97;;;6.37;;
7807;SDS011;3949;49.254;8.894;2023-08-21T06:28:42;6.70;;;6.20;;
7807;SDS011;3949;49.254;8.894;2023-08-21T06:31:08;7.87;;;7.17;;
7807;SDS011;3949;49.254;8.894;2023-08-21T06:33:35;7.90;;;7.20;;
7807;SDS011;3949;49.254;8.894;2023-08-21T06:36:01;7.93;;;6.67;;
7807;SDS011;3949;49.254;8.894;2023-08-21T06:38:27;7.43;;;6.80;;
7807;SDS011;3949;49.254;8.894;2023-08-21T06:40:52;6.83;;;6.23;;
7807;SDS011;3949;49.254;8.894;2023-08-21T06:43:18;7.20;;;6.57;;
7807;SDS011;3949;49.254;8.894;2023-08-21T06:45:46;6.37;;;5.87;;
7807;SDS011;3949;49.254;8.894;2023-08-21T06:48:12;6.67;;;6.07;;
7807;SDS011;3949;49.254;8.894;2023-08-21T06:50:38;8.43;;;5.90;;
7807;SDS011;3949;49.254;8.894;2023-08-21T06:53:04;6.83;;;6.20;;
7807;SDS011;3949;49.254;8.894;2023-08-21T06:55:30;7.10;;;6.40;;
7807;SDS011;3949;49.254;8.894;2023-08-21T06:57:56;7.30;;;6.60;;
7807;SDS011;3949;49.254;8.894;2023-08-21T07:00:22;7.07;;;6.37;;
7807;SDS011;3949;49.254;8.894;2023-08-21T07:02:48;7.43;;;6.23;;
7807;SDS011;3949;49.254;8.894;2023-08-21T07:05:14;6.90;;;6.30;;
7807;SDS011;3949;49.254;8.894;2023-08-21T07:07:40;6.83;;;6.17;;
7807;SDS011;3949;49.254;8.894;2023-08-21T07:10:06;8.53;;;6.03;;
7807;SDS011;3949;49.254;8.894;2023-08-21T07:12:33;7.33;;;6.63;;
7807;SDS011;3949;49.254;8.894;2023-08-21T07:14:59;6.93;;;6.33;;
7807;SDS011;3949;49.254;8.894;2023-08-21T07:17:25;10.03;;;6.90;;
7807;SDS011;3949;49.254;8.894;2023-08-21T07:19:51;7.13;;;6.43;;
7807;SDS011;3949;49.254;8.894;2023-08-21T07:22:18;7.80;;;6.83;;
7807;SDS011;3949;49.254;8.894;2023-08-21T07:24:44;7.27;;;6.57;;
7807;SDS011;3949;49.254;8.894;2023-08-21T07:27:10;8.93;;;6.27;;
7807;SDS011;3949;49.254;8.894;2023-08-21T07:29:36;7.27;;;6.63;;
7807;SDS011;3949;49.254;8.894;2023-08-21T07:32:02;7.33;;;6.60;;
7807;SDS011;3949;49.254;8.894;2023-08-21T07:34:28;7.30;;;6.70;;
7807;SDS011;3949;49.254;8.894;2023-08-21T07:36:54;7.50;;;6.80;;
7807;SDS011;3949;49.254;8.894;2023-08-21T07:39:20;9.07;;;7.57;;
7807;SDS011;3949;49.254;8.894;2023-08-21T07:41:46;8.50;;;7.60;;
7807;SDS011;3949;49.254;8.894;2023-08-21T07:44:12;7.33;;;6.63;;
7807;SDS011;3949;49.254;8.894;2023-08-21T07:46:38;8.53;;;7.63;;
7807;SDS011;3949;49.254;8.894;2023-08-21T07:49:04;8.37;;;7.40;;
7807;SDS011;3949;49.254;8.894;2023-08-21T07:51:30;8.73;;;7.87;;
7807;SDS011;3949;49.254;8.894;2023-08-21T07:53:56;7.67;;;6.97;;
7807;SDS011;3949;49.254;8.894;2023-08-21T07:56:22;8.13;;;7.27;;
7807;SDS011;3949;49.254;8.894;2023-08-21T07:58:48;8.37;;;7.53;;
7807;SDS011;3949;49.254;8.894;2023-08-21T08:01:14;7.50;;;6.83;;
7807;SDS011;3949;49.254;8.894;2023-08-21T08:03:39;7.90;;;7.13;;
7807;SDS011;3949;49.254;8.894;2023-08-21T08:06:05;7.20;;;6.60;;
7807;SDS011;3949;49.254;8.894;2023-08-21T08:08:31;7.37;;;6.77;;
7807;SDS011;3949;49.254;8.894;2023-08-21T08:11:01;6.70;;;6.10;;
7807;SDS011;3949;49.254;8.894;2023-08-21T08:13:28;7.35;;;6.63;;
7807;SDS011;3949;49.254;8.894;2023-08-21T08:15:53;7.47;;;6.85;;
7807;SDS011;3949;49.254;8.894;2023-08-21T08:18:19;7.63;;;6.68;;
7807;SDS011;3949;49.254;8.894;2023-08-21T08:20:45;7.70;;;6.90;;
7807;SDS011;3949;49.254;8.894;2023-08-21T08:23:11;6.70;;;5.93;;
7807;SDS011;3949;49.254;8.894;2023-08-21T08:25:37;6.55;;;6.10;;
7807;SDS011;3949;49.254;8.894;2023-08-21T08:28:03;9.82;;;6.60;;
7807;SDS011;3949;49.254;8.894;2023-08-21T08:30:29;8.35;;;7.05;;
7807;SDS011;3949;49.254;8.894;2023-08-21T08:32:55;7.38;;;6.78;;
7807;SDS011;3949;49.254;8.894;2023-08-21T08:35:21;7.43;;;6.72;;
7807;SDS011;3949;49.254;8.894;2023-08-21T08:37:47;8.32;;;6.90;;
7807;SDS011;3949;49.254;8.894;2023-08-21T08:40:13;10.80;;;7.55;;
7807;SDS011;3949;49.254;8.894;2023-08-21T08:42:39;8.02;;;7.22;;
7807;SDS011;3949;49.254;8.894;2023-08-21T08:45:06;9.98;;;7.28;;
7807;SDS011;3949;49.254;8.894;2023-08-21T08:47:32;7.20;;;6.50;;
7807;SDS011;3949;49.254;8.894;2023-08-21T08:50:01;8.20;;;7.40;;
7807;SDS011;3949;49.254;8.894;2023-08-21T08:52:27;9.40;;;7.13;;
7807;SDS011;3949;49.254;8.894;2023-08-21T08:54:56;11.10;;;8.80;;
7807;SDS011;3949;49.254;8.894;2023-08-21T08:57:23;10.10;;;8.57;;
7807;SDS011;3949;49.254;8.894;2023-08-21T08:59:49;8.88;;;7.55;;
7807;SDS011;3949;49.254;8.894;2023-08-21T09:02:15;15.50;;;10.07;;
7807;SDS011;3949;49.254;8.894;2023-08-21T09:04:42;10.27;;;7.53;;
7807;SDS011;3949;49.254;8.894;2023-08-21T09:07:08;9.13;;;7.90;;
7807;SDS011;3949;49.254;8.894;2023-08-21T09:09:41;11.93;;;9.13;;
7807;SDS011;3949;49.254;8.894;2023-08-21T09:12:10;12.70;;;8.88;;
7807;SDS011;3949;49.254;8.894;2023-08-21T09:14:37;8.65;;;7.78;;
7807;SDS011;3949;49.254;8.894;2023-08-21T09:17:04;8.27;;;7.45;;
7807;SDS011;3949;49.254;8.894;2023-08-21T09:19:30;8.43;;;7.70;;
7807;SDS011;3949;49.254;8.894;2023-08-21T09:21:56;7.30;;;6.80;;
7807;SDS011;3949;49.254;8.894;2023-08-21T09:24:22;7.45;;;6.75;;
7807;SDS011;3949;49.254;8.894;2023-08-21T09:26:49;7.30;;;6.70;;
7807;SDS011;3949;49.254;8.894;2023-08-21T09:29:15;7.30;;;6.70;;
7807;SDS011;3949;49.254;8.894;2023-08-21T09:31:41;6.63;;;6.03;;
7807;SDS011;3949;49.254;8.894;2023-08-21T09:34:10;7.20;;;6.32;;
7807;SDS011;3949;49.254;8.894;2023-08-21T09:36:36;6.25;;;5.65;;
7807;SDS011;3949;49.254;8.894;2023-08-21T09:39:04;6.95;;;6.28;;
7807;SDS011;3949;49.254;8.894;2023-08-21T09:41:31;7.38;;;6.35;;
7807;SDS011;3949;49.254;8.894;2023-08-21T09:44:00;6.72;;;6.15;;
7807;SDS011;3949;49.254;8.894;2023-08-21T09:46:28;10.55;;;7.40;;
7807;SDS011;3949;49.254;8.894;2023-08-21T09:48:54;8.02;;;7.22;;
7807;SDS011;3949;49.254;8.894;2023-08-21T09:51:20;8.00;;;6.78;;
7807;SDS011;3949;49.254;8.894;2023-08-21T09:53:49;6.28;;;5.78;;
7807;SDS011;3949;49.254;8.894;2023-08-21T09:56:17;8.57;;;6.63;;
7807;SDS011;3949;49.254;8.894;2023-08-21T09:58:45;6.85;;;6.35;;
7807;SDS011;3949;49.254;8.894;2023-08-21T10:01:11;7.50;;;6.80;;
7807;SDS011;3949;49.254;8.894;2023-08-21T10:03:40;6.05;;;5.45;;
7807;SDS011;3949;49.254;8.894;2023-08-21T10:06:08;7.57;;;6.88;;
7807;SDS011;3949;49.254;8.894;2023-08-21T10:08:38;6.90;;;6.15;;
7807;SDS011;3949;49.254;8.894;2023-08-21T10:11:07;7.25;;;6.38;;
7807;SDS011;3949;49.254;8.894;2023-08-21T10:13:34;5.88;;;5.28;;
7807;SDS011;3949;49.254;8.894;2023-08-21T10:16:00;4.88;;;4.30;;
7807;SDS011;3949;49.254;8.894;2023-08-21T10:18:30;5.65;;;5.10;;
7807;SDS011;3949;49.254;8.894;2023-08-21T10:21:09;4.97;;;4.50;;
7807;SDS011;3949;49.254;8.894;2023-08-21T10:23:36;5.80;;;5.30;;
7807;SDS011;3949;49.254;8.894;2023-08-21T10:26:07;5.68;;;4.82;;
7807;SDS011;3949;49.254;8.894;2023-08-21T10:33:56;5.70;;;4.35;;
7807;SDS011;3949;49.254;8.894;2023-08-21T10:39:16;4.35;;;3.90;;
7807;SDS011;3949;49.254;8.894;2023-08-21T10:42:33;5.15;;;4.68;;
7807;SDS011;3949;49.254;8.894;2023-08-21T10:49:40;6.70;;;4.50;;
7807;SDS011;3949;49.254;8.894;2023-08-21T10:52:07;5.63;;;4.00;;
7807;SDS011;3949;49.254;8.894;2023-08-21T10:54:43;5.20;;;4.57;;
7807;SDS011;3949;49.254;8.894;2023-08-21T10:57:09;5.70;;;3.92;;
7807;SDS011;3949;49.254;8.894;2023-08-21T10:59:35;4.50;;;3.88;;
7807;SDS011;3949;49.254;8.894;2023-08-21T11:02:01;4.45;;;4.05;;
7807;SDS011;3949;49.254;8.894;2023-08-21T11:04:28;6.50;;;4.63;;
7807;SDS011;3949;49.254;8.894;2023-08-21T11:06:54;4.97;;;4.45;;
7807;SDS011;3949;49.254;8.894;2023-08-21T11:09:22;5.15;;;4.60;;
7807;SDS011;3949;49.254;8.894;2023-08-21T11:11:47;6.18;;;5.15;;
7807;SDS011;3949;49.254;8.894;2023-08-21T11:14:13;7.13;;;5.65;;
7807;SDS011;3949;49.254;8.894;2023-08-21T11:16:39;5.63;;;4.43;;
7807;SDS011;3949;49.254;8.894;2023-08-21T11:19:06;6.13;;;5.10;;
7807;SDS011;3949;49.254;8.894;2023-08-21T11:21:32;4.65;;;4.18;;
7807;SDS011;3949;49.254;8.894;2023-08-21T11:23:58;6.10;;;4.30;;
7807;SDS011;3949;49.254;8.894;2023-08-21T11:26:24;10.65;;;5.20;;
7807;SDS011;3949;49.254;8.894;2023-08-21T11:28:50;5.75;;;4.85;;
7807;SDS011;3949;49.254;8.894;2023-08-21T11:31:17;6.30;;;5.28;;
7807;SDS011;3949;49.254;8.894;2023-08-21T11:33:48;5.38;;;4.78;;
7807;SDS011;3949;49.254;8.894;2023-08-21T11:36:14;5.35;;;4.85;;
7807;SDS011;3949;49.254;8.894;2023-08-21T11:38:40;6.85;;;5.22;;
7807;SDS011;3949;49.254;8.894;2023-08-21T11:41:06;5.35;;;4.85;;
7807;SDS011;3949;49.254;8.894;2023-08-21T11:43:39;6.38;;;5.00;;
7807;SDS011;3949;49.254;8.894;2023-08-21T11:46:06;5.18;;;4.28;;
7807;SDS011;3949;49.254;8.894;2023-08-21T11:48:32;6.20;;;5.07;;
7807;SDS011;3949;49.254;8.894;2023-08-21T11:50:59;5.70;;;4.95;;
7807;SDS011;3949;49.254;8.894;2023-08-21T11:53:32;5.00;;;4.50;;
7807;SDS011;3949;49.254;8.894;2023-08-21T11:55:58;5.05;;;4.55;;
7807;SDS011;3949;49.254;8.894;2023-08-21T11:58:26;4.75;;;4.32;;
7807;SDS011;3949;49.254;8.894;2023-08-21T12:00:53;7.90;;;4.82;;
7807;SDS011;3949;49.254;8.894;2023-08-21T12:03:19;4.55;;;4.03;;
7807;SDS011;3949;49.254;8.894;2023-08-21T12:05:45;5.78;;;4.35;;
7807;SDS011;3949;49.254;8.894;2023-08-21T12:08:11;5.97;;;4.70;;
7807;SDS011;3949;49.254;8.894;2023-08-21T12:10:37;5.30;;;4.53;;
7807;SDS011;3949;49.254;8.894;2023-08-21T12:13:03;6.15;;;4.53;;
7807;SDS011;3949;49.254;8.894;2023-08-21T12:15:29;6.65;;;5.15;;
7807;SDS011;3949;49.254;8.894;2023-08-21T12:17:55;5.43;;;4.85;;
7807;SDS011;3949;49.254;8.894;2023-08-21T12:20:21;5.63;;;4.60;;
7807;SDS011;3949;49.254;8.894;2023-08-21T12:22:47;5.63;;;4.78;;
7807;SDS011;3949;49.254;8.894;2023-08-21T12:25:13;4.88;;;4.35;;
7807;SDS011;3949;49.254;8.894;2023-08-21T12:27:39;5.22;;;4.38;;
7807;SDS011;3949;49.254;8.894;2023-08-21T12:30:05;5.55;;;5.05;;
7807;SDS011;3949;49.254;8.894;2023-08-21T12:32:31;5.38;;;4.68;;
7807;SDS011;3949;49.254;8.894;2023-08-21T12:34:57;5.22;;;4.72;;
7807;SDS011;3949;49.254;8.894;2023-08-21T12:37:23;6.72;;;4.75;;
7807;SDS011;3949;49.254;8.894;2023-08-21T12:39:50;5.35;;;4.90;;
7807;SDS011;3949;49.254;8.894;2023-08-21T12:42:16;4.93;;;4.05;;
7807;SDS011;3949;49.254;8.894;2023-08-21T12:44:42;5.30;;;4.45;;
7807;SDS011;3949;49.254;8.894;2023-08-21T12:47:08;5.65;;;5.10;;
7807;SDS011;3949;49.254;8.894;2023-08-21T12:49:34;10.48;;;4.55;;
7807;SDS011;3949;49.254;8.894;2023-08-21T12:52:00;4.50;;;4.10;;
7807;SDS011;3949;49.254;8.894;2023-08-21T12:54:27;4.40;;;4.05;;
7807;SDS011;3949;49.254;8.894;2023-08-21T12:56:53;4.80;;;4.32;;
7807;SDS011;3949;49.254;8.894;2023-08-21T12:59:19;5.50;;;4.20;;
7807;SDS011;3949;49.254;8.894;2023-08-21T13:01:45;5.93;;;4.45;;
7807;SDS011;3949;49.254;8.894;2023-08-21T13:04:11;4.60;;;4.13;;
7807;SDS011;3949;49.254;8.894;2023-08-21T13:06:36;3.97;;;3.58;;
7807;SDS011;3949;49.254;8.894;2023-08-21T13:09:02;3.95;;;3.63;;
7807;SDS011;3949;49.254;8.894;2023-08-21T13:11:30;8.10;;;3.95;;
7807;SDS011;3949;49.254;8.894;2023-08-21T13:13:56;4.35;;;3.97;;
7807;SDS011;3949;49.254;8.894;2023-08-21T13:16:22;6.00;;;4.28;;
7807;SDS011;3949;49.254;8.894;2023-08-21T13:18:48;4.50;;;4.07;;
7807;SDS011;3949;49.254;8.894;2023-08-21T13:21:14;4.10;;;3.75;;
7807;SDS011;3949;49.254;8.894;2023-08-21T13:23:40;6.03;;;4.25;;
7807;SDS011;3949;49.254;8.894;2023-08-21T13:26:06;4.65;;;4.03;;
7807;SDS011;3949;49.254;8.894;2023-08-21T13:28:32;4.35;;;3.95;;
7807;SDS011;3949;49.254;8.894;2023-08-21T13:30:59;5.55;;;4.13;;
7807;SDS011;3949;49.254;8.894;2023-08-21T13:33:25;6.85;;;4.40;;
7807;SDS011;3949;49.254;8.894;2023-08-21T13:35:51;4.78;;;4.38;;
7807;SDS011;3949;49.254;8.894;2023-08-21T13:38:17;5.03;;;4.47;;
7807;SDS011;3949;49.254;8.894;2023-08-21T13:40:43;4.57;;;4.10;;
7807;SDS011;3949;49.254;8.894;2023-08-21T13:43:09;5.55;;;4.30;;
7807;SDS011;3949;49.254;8.894;2023-08-21T13:45:37;4.45;;;4.05;;
7807;SDS011;3949;49.254;8.894;2023-08-21T13:48:04;4.47;;;4.07;;
7807;SDS011;3949;49.254;8.894;2023-08-21T13:50:31;5.20;;;3.78;;
7807;SDS011;3949;49.254;8.894;2023-08-21T13:52:57;6.00;;;4.18;;
7807;SDS011;3949;49.254;8.894;2023-08-21T13:55:23;5.15;;;4.65;;
7807;SDS011;3949;49.254;8.894;2023-08-21T13:57:49;5.95;;;4.70;;
7807;SDS011;3949;49.254;8.894;2023-08-21T14:00:15;6.15;;;4.40;;
7807;SDS011;3949;49.254;8.894;2023-08-21T14:02:42;4.60;;;3.80;;
7807;SDS011;3949;49.254;8.894;2023-08-21T14:05:09;4.20;;;3.90;;
7807;SDS011;3949;49.254;8.894;2023-08-21T14:07:35;4.97;;;4.47;;
7807;SDS011;3949;49.254;8.894;2023-08-21T14:10:01;7.28;;;4.65;;
7807;SDS011;3949;49.254;8.894;2023-08-21T14:12:28;6.00;;;4.82;;
7807;SDS011;3949;49.254;8.894;2023-08-21T14:14:55;4.95;;;4.28;;
7807;SDS011;3949;49.254;8.894;2023-08-21T14:17:21;5.70;;;4.32;;
7807;SDS011;3949;49.254;8.894;2023-08-21T14:19:47;5.25;;;4.32;;
7807;SDS011;3949;49.254;8.894;2023-08-21T14:22:13;5.07;;;4.20;;
7807;SDS011;3949;49.254;8.894;2023-08-21T14:24:39;5.32;;;4.15;;
7807;SDS011;3949;49.254;8.894;2023-08-21T14:27:05;4.68;;;4.28;;
7807;SDS011;3949;49.254;8.894;2023-08-21T14:29:31;5.10;;;4.50;;
7807;SDS011;3949;49.254;8.894;2023-08-21T14:31:58;5.55;;;4.20;;
7807;SDS011;3949;49.254;8.894;2023-08-21T14:34:24;5.38;;;4.40;;
7807;SDS011;3949;49.254;8.894;2023-08-21T14:36:51;3.88;;;3.58;;
7807;SDS011;3949;49.254;8.894;2023-08-21T14:39:16;4.32;;;3.92;;
7807;SDS011;3949;49.254;8.894;2023-08-21T14:41:44;4.00;;;3.60;;
7807;SDS011;3949;49.254;8.894;2023-08-21T14:44:10;4.57;;;4.13;;
7807;SDS011;3949;49.254;8.894;2023-08-21T14:46:36;3.83;;;3.50;;
7807;SDS011;3949;49.254;8.894;2023-08-21T14:49:03;4.68;;;3.78;;
7807;SDS011;3949;49.254;8.894;2023-08-21T14:51:29;5.47;;;4.32;;
7807;SDS011;3949;49.254;8.894;2023-08-21T14:53:54;6.30;;;3.88;;
7807;SDS011;3949;49.254;8.894;2023-08-21T14:56:21;6.20;;;4.30;;
7807;SDS011;3949;49.254;8.894;2023-08-21T14:58:47;4.43;;;4.03;;
7807;SDS011;3949;49.254;8.894;2023-08-21T15:01:13;4.30;;;3.90;;
7807;SDS011;3949;49.254;8.894;2023-08-21T15:03:39;3.80;;;3.50;;
7807;SDS011;3949;49.254;8.894;2023-08-21T15:06:05;3.90;;;3.60;;
7807;SDS011;3949;49.254;8.894;2023-08-21T15:08:32;4.28;;;3.88;;
7807;SDS011;3949;49.254;8.894;2023-08-21T15:10:58;3.60;;;3.30;;
7807;SDS011;3949;49.254;8.894;2023-08-21T15:13:24;4.63;;;3.30;;
7807;SDS011;3949;49.254;8.894;2023-08-21T15:15:50;4.45;;;3.63;;
7807;SDS011;3949;49.254;8.894;2023-08-21T15:18:16;4.45;;;3.70;;
7807;SDS011;3949;49.254;8.894;2023-08-21T15:20:41;3.35;;;3.05;;
7807;SDS011;3949;49.254;8.894;2023-08-21T15:23:07;3.70;;;3.40;;
7807;SDS011;3949;49.254;8.894;2023-08-21T15:25:33;5.30;;;3.75;;
7807;SDS011;3949;49.254;8.894;2023-08-21T15:27:59;4.22;;;3.58;;